Time;durP1;ratioP1;P1;durP2;ratioP2;P2;SDS_P1;SDS_P2;PMS_P1;PMS_P2;Temp;Humidity;BMP_temperature;BMP_pressure;BME280_temperature;BME280_humidity;BME280_pressure;Samples;Min_cycle;Max_cycle;Signal;HPM_P1;HPM_P2
2023/07/05 00:01:44;;;;;;;12.68;9.18;;;17.40;99.90;;;;;;4862010;29;20060;-84
2023/07/05 00:04:10;;;;;;;15.57;8.73;;;17.80;99.90;;;;;;4862268;29;20068;-83
2023/07/05 00:06:35;;;;;;;14.50;8.90;;;17.40;99.90;;;;;;4862569;29;20492;-83
2023/07/05 00:09:01;;;;;;;11.95;8.80;;;17.40;99.90;;;;;;4861352;29;20046;-83
2023/07/05 00:11:27;;;;;;;13.88;9.50;;;17.40;99.90;;;;;;4862333;29;20029;-83
2023/07/05 00:13:53;;;;;;;17.92;9.32;;;17.40;99.90;;;;;;4862296;29;20056;-83
2023/07/05 00:16:20;;;;;;;13.07;8.70;;;17.30;99.90;;;;;;4861460;29;20069;-83
2023/07/05 00:18:45;;;;;;;15.70;8.98;;;17.40;99.90;;;;;;4862281;29;20033;-83
2023/07/05 00:21:11;;;;;;;15.52;8.05;;;17.40;99.90;;;;;;4862341;29;20415;-83
2023/07/05 00:23:38;;;;;;;13.82;8.75;;;17.40;99.90;;;;;;4861396;29;20036;-83
2023/07/05 00:26:05;;;;;;;17.08;8.60;;;17.40;99.90;;;;;;4861658;29;20928;-83
2023/07/05 00:28:35;;;;;;;13.52;8.93;;;17.40;99.90;;;;;;4861473;29;20399;-83
2023/07/05 00:31:04;;;;;;;11.18;8.70;;;17.40;99.90;;;;;;4861742;29;20025;-83
2023/07/05 00:33:31;;;;;;;12.25;8.63;;;17.40;99.90;;;;;;4862114;29;20112;-83
2023/07/05 00:35:56;;;;;;;14.48;8.45;;;17.40;99.90;;;;;;4861365;29;20036;-83
2023/07/05 00:38:22;;;;;;;9.57;6.57;;;17.40;99.90;;;;;;4861467;29;20033;-83
2023/07/05 00:40:49;;;;;;;10.30;7.10;;;17.40;99.90;;;;;;4861478;29;20021;-84
2023/07/05 00:43:16;;;;;;;11.90;6.78;;;17.40;99.90;;;;;;4860936;29;20040;-83
2023/07/05 00:45:59;;;;;;;10.73;6.70;;;17.40;99.90;;;;;;4861968;29;20538;-83
2023/07/05 00:48:32;;;;;;;9.05;6.85;;;17.40;99.90;;;;;;4861669;29;20064;-83
2023/07/05 00:51:01;;;;;;;8.20;6.40;;;17.40;99.90;;;;;;4860943;29;20022;-83
2023/07/05 00:53:29;;;;;;;7.28;6.30;;;17.40;99.90;;;;;;4861970;29;20112;-83
2023/07/05 00:56:09;;;;;;;9.25;6.22;;;18.50;99.90;;;;;;4861232;29;20029;-83
2023/07/05 00:58:35;;;;;;;8.10;5.85;;;17.40;99.90;;;;;;4860895;29;20029;-84
2023/07/05 01:01:01;;;;;;;7.60;5.95;;;17.40;99.90;;;;;;4861654;29;20098;-83
2023/07/05 01:03:27;;;;;;;7.03;5.65;;;17.40;99.90;;;;;;4861424;29;20082;-83
2023/07/05 01:05:58;;;;;;;7.28;5.30;;;17.40;99.90;;;;;;4861165;29;20034;-83
2023/07/05 01:08:24;;;;;;;15.27;6.72;;;17.40;99.90;;;;;;4861444;29;20035;-84
2023/07/05 01:11:05;;;;;;;7.93;4.45;;;17.30;99.90;;;;;;4860565;29;20113;-83
2023/07/05 01:13:41;;;;;;;8.32;5.38;;;17.30;99.90;;;;;;4861406;29;20098;-83
2023/07/05 01:16:14;;;;;;;6.80;4.30;;;17.30;99.90;;;;;;4863096;29;20033;-83
2023/07/05 01:18:59;;;;;;;8.73;4.00;;;17.40;99.90;;;;;;4884956;29;20018;-83
2023/07/05 01:21:50;;;;;;;5.97;3.72;;;17.30;99.90;;;;;;4875511;29;20538;-83
2023/07/05 01:24:37;;;;;;;4.43;3.22;;;17.30;99.90;;;;;;4860785;29;20022;-83
2023/07/05 01:27:36;;;;;;;3.92;2.60;;;17.30;99.90;;;;;;4860827;29;20045;-83
2023/07/05 01:30:33;;;;;;;4.03;2.20;;;17.30;99.90;;;;;;4860878;29;20033;-83
2023/07/05 01:33:04;;;;;;;2.88;2.03;;;17.30;99.90;;;;;;4860022;29;20037;-82
2023/07/05 01:35:36;;;;;;;5.18;2.35;;;17.40;99.90;;;;;;4861135;29;20025;-83
2023/07/05 01:38:06;;;;;;;2.88;1.83;;;17.40;99.90;;;;;;4860640;29;20375;-83
2023/07/05 01:40:31;;;;;;;2.55;1.70;;;17.50;99.90;;;;;;4860135;29;20037;-83
2023/07/05 01:43:06;;;;;;;1.88;1.60;;;17.50;99.90;;;;;;4860600;29;20521;-83
2023/07/05 01:46:02;;;;;;;1.90;1.60;;;17.60;99.90;;;;;;4860724;29;20031;-83
2023/07/05 01:48:54;;;;;;;5.43;2.35;;;17.60;99.90;;;;;;4860827;29;20040;-83
2023/07/05 01:51:49;;;;;;;2.55;1.70;;;17.60;99.90;;;;;;4860780;29;20478;-83
2023/07/05 01:54:37;;;;;;;3.63;1.75;;;17.60;99.90;;;;;;4860030;29;20029;-83
2023/07/05 01:57:16;;;;;;;3.95;2.05;;;17.60;99.90;;;;;;4860323;29;20472;-83
2023/07/05 01:59:55;;;;;;;5.03;1.60;;;17.60;99.90;;;;;;4860579;29;20033;-83
2023/07/05 02:02:32;;;;;;;2.75;1.90;;;17.60;99.90;;;;;;4860911;29;20032;-83
2023/07/05 02:05:01;;;;;;;5.85;2.25;;;17.60;99.90;;;;;;4860509;29;20029;-83
2023/07/05 02:07:29;;;;;;;9.55;2.10;;;17.60;99.90;;;;;;4859513;29;20026;-83
2023/07/05 02:09:55;;;;;;;6.38;2.60;;;17.50;99.90;;;;;;4859956;29;20042;-82
2023/07/05 02:12:22;;;;;;;7.20;2.97;;;17.50;99.90;;;;;;4860715;29;20026;-83
2023/07/05 02:14:48;;;;;;;4.15;2.10;;;17.40;99.90;;;;;;4859597;29;20040;-83
2023/07/05 02:17:14;;;;;;;3.30;1.92;;;17.30;99.90;;;;;;4860511;29;20029;-83
2023/07/05 02:19:39;;;;;;;4.78;2.40;;;17.30;99.90;;;;;;4860387;29;20034;-83
2023/07/05 02:22:05;;;;;;;4.60;2.40;;;17.30;99.90;;;;;;4859546;29;20505;-82
2023/07/05 02:24:31;;;;;;;5.07;2.40;;;17.20;99.90;;;;;;4860153;29;20041;-82
2023/07/05 02:26:57;;;;;;;7.07;3.33;;;17.10;99.90;;;;;;4860146;29;20419;-83
2023/07/05 02:29:23;;;;;;;4.38;2.92;;;17.10;99.90;;;;;;4859310;29;20125;-83
2023/07/05 02:31:49;;;;;;;8.65;3.78;;;17.10;99.90;;;;;;4860092;29;20076;-83
2023/07/05 02:34:14;;;;;;;8.45;3.70;;;17.00;99.90;;;;;;4860077;29;20041;-83
2023/07/05 02:36:40;;;;;;;6.22;3.90;;;17.00;99.90;;;;;;4859912;29;20033;-82
2023/07/05 02:39:06;;;;;;;3.60;3.30;;;16.90;99.90;;;;;;4859625;29;20040;-82
2023/07/05 02:41:31;;;;;;;6.82;3.83;;;16.80;99.90;;;;;;4860283;29;20026;-82
2023/07/05 02:43:57;;;;;;;6.72;3.78;;;16.80;99.90;;;;;;4859116;29;20042;-83
2023/07/05 02:46:25;;;;;;;4.15;3.65;;;16.70;99.90;;;;;;4860108;29;20077;-82
2023/07/05 02:48:52;;;;;;;6.68;4.10;;;16.50;99.90;;;;;;4859787;29;20045;-82
2023/07/05 02:51:18;;;;;;;3.97;3.30;;;17.20;99.90;;;;;;4859486;29;20096;-83
2023/07/05 02:53:43;;;;;;;4.43;3.17;;;16.50;99.90;;;;;;4860040;29;20113;-82
2023/07/05 02:56:09;;;;;;;6.97;3.83;;;16.50;99.90;;;;;;4859534;29;20471;-82
2023/07/05 02:58:35;;;;;;;6.43;3.50;;;16.40;99.90;;;;;;4860175;29;20033;-82
2023/07/05 03:01:00;;;;;;;5.22;3.92;;;16.40;99.90;;;;;;4859898;29;20444;-81
2023/07/05 03:03:26;;;;;;;6.20;3.63;;;16.40;99.90;;;;;;4866864;29;20026;-82
2023/07/05 03:05:59;;;;;;;8.60;3.63;;;16.40;99.90;;;;;;4877141;29;20057;-82
2023/07/05 03:08:27;;;;;;;6.90;3.75;;;16.30;99.90;;;;;;4873039;29;20547;-82
2023/07/05 03:10:54;;;;;;;6.72;3.45;;;16.30;99.90;;;;;;4860069;29;20042;-83
2023/07/05 03:13:21;;;;;;;5.18;3.83;;;16.30;99.90;;;;;;4860114;29;20166;-84
2023/07/05 03:15:47;;;;;;;4.35;3.50;;;16.30;99.90;;;;;;4859574;29;20105;-82
2023/07/05 03:18:12;;;;;;;5.20;3.33;;;16.30;99.90;;;;;;4859225;29;20091;-84
2023/07/05 03:20:39;;;;;;;9.20;4.47;;;16.30;99.90;;;;;;4861904;29;20491;-84
2023/07/05 03:23:05;;;;;;;5.13;3.42;;;16.20;99.90;;;;;;4863122;29;20456;-82
2023/07/05 03:25:30;;;;;;;8.65;4.15;;;16.20;99.90;;;;;;4862605;29;20053;-84
2023/07/05 03:27:56;;;;;;;6.57;4.20;;;16.20;99.90;;;;;;4862801;29;20221;-84
2023/07/05 03:30:23;;;;;;;8.98;4.93;;;16.20;99.90;;;;;;4863122;29;20379;-83
2023/07/05 03:32:49;;;;;;;5.05;4.07;;;16.20;99.90;;;;;;4862688;29;20033;-83
2023/07/05 03:35:15;;;;;;;8.35;5.18;;;16.20;99.90;;;;;;4863041;29;20368;-83
2023/07/05 03:37:41;;;;;;;7.10;4.65;;;17.10;99.90;;;;;;4862977;29;20036;-83
2023/07/05 03:40:08;;;;;;;7.05;4.35;;;16.10;99.90;;;;;;4862290;29;20025;-83
2023/07/05 03:42:35;;;;;;;7.40;4.25;;;16.10;99.90;;;;;;4862495;29;20108;-83
2023/07/05 03:45:00;;;;;;;7.95;4.60;;;16.10;99.90;;;;;;4862534;29;20490;-83
2023/07/05 03:47:27;;;;;;;6.10;4.10;;;16.10;99.90;;;;;;4862315;29;20029;-83
2023/07/05 03:49:53;;;;;;;8.07;4.30;;;16.00;99.90;;;;;;4862383;29;20041;-83
2023/07/05 03:52:19;;;;;;;6.75;4.32;;;16.10;99.90;;;;;;4862013;29;20025;-83
2023/07/05 03:54:44;;;;;;;8.45;4.65;;;16.10;99.90;;;;;;4862877;29;20104;-83
2023/07/05 03:57:10;;;;;;;4.88;3.58;;;16.00;99.90;;;;;;4862865;29;20066;-83
2023/07/05 03:59:35;;;;;;;7.82;4.40;;;16.00;99.90;;;;;;4861843;29;20386;-83
2023/07/05 04:02:01;;;;;;;5.22;4.40;;;16.00;99.90;;;;;;4862408;29;20040;-83
2023/07/05 04:04:27;;;;;;;4.28;3.88;;;16.00;99.90;;;;;;4862619;29;20108;-83
2023/07/05 04:06:52;;;;;;;6.95;4.70;;;15.90;99.90;;;;;;4861670;29;20064;-83
2023/07/05 04:09:18;;;;;;;7.65;4.72;;;16.00;99.90;;;;;;4862546;29;20038;-83
2023/07/05 04:11:44;;;;;;;16.50;4.72;;;16.00;99.90;;;;;;4862406;29;20026;-83
2023/07/05 04:14:11;;;;;;;7.78;4.53;;;16.00;99.90;;;;;;4862106;29;20057;-83
2023/07/05 04:16:36;;;;;;;8.60;5.25;;;16.00;99.90;;;;;;4862399;29;20041;-83
2023/07/05 04:19:02;;;;;;;10.20;5.18;;;16.00;99.90;;;;;;4862119;29;20037;-83
2023/07/05 04:21:27;;;;;;;4.88;4.38;;;16.00;99.90;;;;;;4861761;29;20037;-83
2023/07/05 04:23:53;;;;;;;8.38;4.53;;;16.00;99.90;;;;;;4862224;29;20094;-83
2023/07/05 04:26:21;;;;;;;9.95;5.03;;;16.00;99.90;;;;;;4862084;29;20054;-83
2023/07/05 04:28:47;;;;;;;7.57;4.60;;;15.90;99.90;;;;;;4861247;29;20037;-82
2023/07/05 04:31:17;;;;;;;7.43;5.18;;;15.90;99.90;;;;;;4861836;29;20034;-83
2023/07/05 04:33:43;;;;;;;6.10;4.60;;;15.70;99.90;;;;;;4861804;29;20127;-83
2023/07/05 04:36:09;;;;;;;6.75;4.15;;;15.60;99.90;;;;;;4861358;29;20047;-83
2023/07/05 04:38:34;;;;;;;5.78;3.58;;;15.90;99.90;;;;;;4862058;29;20435;-83
2023/07/05 04:41:00;;;;;;;7.53;4.22;;;15.80;99.90;;;;;;4861527;29;20030;-82
2023/07/05 04:43:27;;;;;;;5.75;3.13;;;15.40;99.90;;;;;;4861261;29;20056;-82
2023/07/05 04:45:55;;;;;;;5.53;3.33;;;15.40;99.90;;;;;;4861650;29;20490;-82
2023/07/05 04:48:22;;;;;;;5.57;4.03;;;15.40;99.90;;;;;;4870859;29;20045;-82
2023/07/05 04:50:50;;;;;;;6.90;4.32;;;15.40;99.90;;;;;;4885004;29;20042;-82
2023/07/05 04:53:16;;;;;;;7.28;4.75;;;15.30;99.90;;;;;;4874825;29;20033;-82
2023/07/05 04:55:49;;;;;;;8.30;3.83;;;15.40;99.90;;;;;;4861250;29;20037;-82
2023/07/05 04:58:15;;;;;;;5.65;3.55;;;15.40;99.90;;;;;;4861701;29;20026;-82
2023/07/05 05:00:46;;;;;;;5.47;3.65;;;15.40;99.90;;;;;;4861654;29;20029;-83
2023/07/05 05:03:13;;;;;;;4.70;3.05;;;15.50;99.90;;;;;;4861363;29;20025;-82
2023/07/05 05:05:41;;;;;;;7.32;2.55;;;15.50;99.90;;;;;;4861944;29;20108;-83
2023/07/05 05:08:07;;;;;;;6.60;2.80;;;15.50;99.90;;;;;;4861336;29;20030;-83
2023/07/05 05:10:35;;;;;;;4.28;2.20;;;15.40;99.90;;;;;;4860363;29;20367;-83
2023/07/05 05:13:01;;;;;;;6.97;2.30;;;15.40;99.90;;;;;;4861073;29;20401;-83
2023/07/05 05:15:26;;;;;;;3.90;2.15;;;15.40;99.90;;;;;;4861564;29;20025;-83
2023/07/05 05:17:52;;;;;;;3.75;2.03;;;15.40;99.90;;;;;;4860255;29;20081;-83
2023/07/05 05:20:18;;;;;;;12.82;2.40;;;15.40;99.90;;;;;;4861460;29;20122;-83
2023/07/05 05:22:44;;;;;;;6.82;2.33;;;15.50;99.90;;;;;;4861389;29;20049;-82
2023/07/05 05:25:10;;;;;;;3.80;1.77;;;15.50;99.90;;;;;;4860524;29;20041;-82
2023/07/05 05:27:36;;;;;;;3.97;1.98;;;15.50;99.90;;;;;;4861333;29;20382;-83
2023/07/05 05:30:01;;;;;;;5.55;2.65;;;15.50;99.90;;;;;;4860965;29;20045;-83
2023/07/05 05:32:27;;;;;;;6.50;2.10;;;15.50;99.90;;;;;;4861026;29;20026;-83
2023/07/05 05:34:54;;;;;;;5.78;2.50;;;15.50;99.90;;;;;;4860776;29;20455;-83
2023/07/05 05:37:19;;;;;;;6.47;2.65;;;15.40;99.90;;;;;;4861131;29;20034;-83
2023/07/05 05:39:45;;;;;;;5.28;2.67;;;15.40;99.90;;;;;;4860168;29;20509;-83
2023/07/05 05:42:10;;;;;;;3.42;1.88;;;15.50;99.90;;;;;;4860398;29;20441;-83
2023/07/05 05:44:36;;;;;;;10.30;3.00;;;15.40;99.90;;;;;;4860773;29;20085;-82
2023/07/05 05:47:02;;;;;;;6.40;2.63;;;15.40;99.90;;;;;;4860164;29;20033;-83
2023/07/05 05:49:27;;;;;;;5.25;2.55;;;15.30;99.90;;;;;;4860781;29;20483;-83
2023/07/05 05:51:53;;;;;;;9.05;2.55;;;15.20;99.90;;;;;;4860142;29;20022;-83
2023/07/05 05:54:18;;;;;;;2.92;1.42;;;15.10;99.90;;;;;;4860732;29;20033;-83
2023/07/05 05:56:44;;;;;;;8.57;2.40;;;15.10;99.90;;;;;;4860789;29;20026;-83
2023/07/05 05:59:10;;;;;;;11.07;2.80;;;14.90;99.90;;;;;;4860026;29;20394;-82
2023/07/05 06:01:35;;;;;;;7.00;2.17;;;14.90;99.90;;;;;;4861082;29;20463;-83
2023/07/05 06:04:01;;;;;;;7.30;1.75;;;15.30;99.90;;;;;;4860448;29;20034;-83
2023/07/05 06:06:26;;;;;;;5.38;1.85;;;14.70;99.90;;;;;;4860171;29;20483;-83
2023/07/05 06:08:52;;;;;;;9.18;2.65;;;14.70;99.90;;;;;;4860393;29;20033;-82
2023/07/05 06:11:17;;;;;;;5.75;1.65;;;14.70;99.90;;;;;;4860479;29;20554;-83
2023/07/05 06:13:43;;;;;;;6.10;1.95;;;14.70;99.90;;;;;;4860151;29;20033;-83
2023/07/05 06:16:08;;;;;;;4.68;1.85;;;14.70;99.90;;;;;;4860308;29;20028;-83
2023/07/05 06:18:34;;;;;;;4.43;1.50;;;14.60;99.90;;;;;;4861104;29;20116;-83
2023/07/05 06:21:00;;;;;;;4.28;1.23;;;14.60;99.90;;;;;;4859629;29;20356;-83
2023/07/05 06:23:26;;;;;;;9.57;1.90;;;14.60;99.90;;;;;;4860650;29;20475;-82
2023/07/05 06:25:51;;;;;;;6.65;1.98;;;14.60;99.90;;;;;;4859994;29;20072;-82
2023/07/05 06:28:18;;;;;;;5.05;2.05;;;14.60;99.90;;;;;;4842906;29;20026;-82
2023/07/05 06:30:45;;;;;;;5.72;1.13;;;14.60;99.90;;;;;;4860847;29;20037;-82
2023/07/05 06:33:13;;;;;;;8.73;1.75;;;14.60;99.90;;;;;;4860790;29;20053;-82
2023/07/05 06:35:39;;;;;;;5.90;1.65;;;14.60;99.90;;;;;;4882748;29;20025;-82
2023/07/05 06:38:04;;;;;;;12.13;2.35;;;14.60;99.90;;;;;;4881778;29;20386;-83
2023/07/05 06:40:30;;;;;;;6.35;2.30;;;14.50;99.90;;;;;;4860789;29;20041;-82
2023/07/05 06:42:56;;;;;;;7.90;1.73;;;14.60;99.90;;;;;;4859587;29;20033;-82
2023/07/05 06:45:21;;;;;;;7.70;2.00;;;14.50;99.90;;;;;;4860258;29;20441;-82
2023/07/05 06:47:48;;;;;;;7.50;1.98;;;14.60;99.90;;;;;;4859738;29;20052;-82
2023/07/05 06:50:14;;;;;;;4.65;1.98;;;14.60;99.90;;;;;;4859837;29;20048;-82
2023/07/05 06:52:39;;;;;;;8.75;2.38;;;14.60;99.90;;;;;;4860035;29;20362;-82
2023/07/05 06:55:06;;;;;;;7.03;1.90;;;14.60;99.90;;;;;;4862466;29;20034;-82
2023/07/05 06:57:32;;;;;;;7.82;2.35;;;14.60;99.90;;;;;;4863403;29;20044;-82
2023/07/05 06:59:57;;;;;;;5.05;2.22;;;14.60;99.90;;;;;;4863494;29;20033;-83
2023/07/05 07:02:23;;;;;;;7.60;2.47;;;14.60;99.90;;;;;;4863226;29;20032;-82
2023/07/05 07:04:48;;;;;;;11.18;2.63;;;14.50;99.90;;;;;;4863614;29;20124;-82
2023/07/05 07:07:14;;;;;;;11.25;2.80;;;14.60;99.90;;;;;;4863707;29;20026;-83
2023/07/05 07:09:40;;;;;;;10.48;2.78;;;14.50;99.90;;;;;;4862946;29;20144;-83
2023/07/05 07:12:07;;;;;;;10.60;2.90;;;14.50;99.90;;;;;;4863473;29;20105;-82
2023/07/05 07:14:34;;;;;;;19.88;3.70;;;14.50;99.90;;;;;;4863276;29;20033;-83
2023/07/05 07:16:59;;;;;;;9.95;3.28;;;14.50;99.90;;;;;;4862555;29;20037;-82
2023/07/05 07:19:25;;;;;;;8.70;2.90;;;14.70;99.90;;;;;;4863452;29;20034;-82
2023/07/05 07:21:51;;;;;;;10.07;3.17;;;14.60;99.90;;;;;;4862930;29;20034;-83
2023/07/05 07:24:16;;;;;;;6.78;2.80;;;14.50;99.90;;;;;;4862797;29;20052;-83
2023/07/05 07:26:42;;;;;;;7.90;3.35;;;14.50;99.90;;;;;;4863104;29;20057;-82
2023/07/05 07:29:08;;;;;;;9.43;3.15;;;14.50;99.90;;;;;;4863399;29;20075;-83
2023/07/05 07:31:34;;;;;;;12.52;2.83;;;14.90;99.90;;;;;;4862498;29;20036;-82
2023/07/05 07:34:00;;;;;;;10.68;3.15;;;14.00;99.90;;;;;;4862953;29;20033;-82
2023/07/05 07:36:34;;;;;;;7.78;3.13;;;14.50;99.90;;;;;;4863231;29;20072;-83
2023/07/05 07:39:00;;;;;;;17.80;3.53;;;14.50;99.90;;;;;;4862447;29;20128;-82
2023/07/05 07:41:29;;;;;;;11.23;3.13;;;16.60;99.90;;;;;;4846616;29;20030;-82
2023/07/05 07:43:58;;;;;;;7.30;3.60;;;14.20;99.90;;;;;;4863027;29;20037;-82
2023/07/05 07:46:26;;;;;;;10.07;3.35;;;14.60;99.90;;;;;;4862895;29;20079;-82
2023/07/05 07:48:54;;;;;;;10.35;3.78;;;14.60;99.90;;;;;;4862818;29;20448;-82
2023/07/05 07:51:22;;;;;;;7.65;3.38;;;14.60;99.90;;;;;;4862985;29;20424;-83
2023/07/05 07:53:50;;;;;;;7.82;3.05;;;14.60;99.90;;;;;;4862100;29;20026;-82
2023/07/05 07:56:19;;;;;;;9.13;3.60;;;14.70;99.90;;;;;;4863203;29;20021;-83
2023/07/05 07:58:47;;;;;;;17.17;3.85;;;14.40;99.90;;;;;;4862635;29;20021;-82
2023/07/05 08:01:17;;;;;;;6.93;3.30;;;14.70;99.90;;;;;;4863141;29;20112;-82
2023/07/05 08:03:43;;;;;;;12.65;3.88;;;14.70;99.90;;;;;;4863087;29;20032;-82
2023/07/05 08:06:09;;;;;;;10.32;3.70;;;14.50;99.90;;;;;;4860948;29;20029;-82
2023/07/05 08:08:36;;;;;;;11.18;3.97;;;13.90;99.90;;;;;;4862588;29;20037;-83
2023/07/05 08:11:04;;;;;;;11.18;3.85;;;15.50;99.90;;;;;;4862719;29;20026;-82
2023/07/05 08:13:30;;;;;;;6.80;3.90;;;14.60;99.90;;;;;;4861852;29;20124;-82
2023/07/05 08:15:56;;;;;;;10.82;3.53;;;14.70;99.90;;;;;;4862654;29;20030;-82
2023/07/05 08:18:22;;;;;;;8.02;3.30;;;14.70;99.90;;;;;;4862779;29;20030;-83
2023/07/05 08:20:48;;;;;;;5.80;2.20;;;14.80;99.90;;;;;;4882471;29;20022;-82
2023/07/05 08:23:14;;;;;;;6.38;2.55;;;14.60;99.90;;;;;;4880470;29;20136;-83
2023/07/05 08:25:42;;;;;;;7.10;2.80;;;14.60;99.90;;;;;;4863956;29;20526;-83
2023/07/05 08:28:08;;;;;;;10.85;3.08;;;14.30;99.90;;;;;;4861571;29;20041;-82
2023/07/05 08:30:34;;;;;;;17.85;4.10;;;14.70;99.90;;;;;;4862395;29;20490;-82
2023/07/05 08:33:02;;;;;;;11.32;3.47;;;14.80;99.90;;;;;;4861854;29;20123;-82
2023/07/05 08:35:27;;;;;;;21.83;3.67;;;14.90;99.90;;;;;;4861640;29;20033;-82
2023/07/05 08:37:53;;;;;;;8.10;3.03;;;15.00;99.90;;;;;;4862049;29;20082;-82
2023/07/05 08:40:18;;;;;;;6.18;2.72;;;15.00;99.90;;;;;;4862272;29;20031;-83
2023/07/05 08:43:06;;;;;;;13.60;2.85;;;15.10;99.90;;;;;;4844817;29;20053;-83
2023/07/05 08:45:38;;;;;;;12.38;2.88;;;15.20;99.90;;;;;;4862064;29;20025;-82
2023/07/05 08:48:05;;;;;;;12.00;3.08;;;15.30;99.90;;;;;;4861042;29;20034;-82
2023/07/05 08:50:36;;;;;;;15.27;3.33;;;15.40;99.90;;;;;;4862092;29;20258;-82
2023/07/05 08:53:21;;;;;;;14.25;3.28;;;15.40;99.90;;;;;;4861951;29;20041;-82
2023/07/05 08:55:49;;;;;;;13.32;3.03;;;15.50;99.90;;;;;;4861614;29;20482;-83
2023/07/05 08:58:26;;;;;;;11.38;2.35;;;15.50;99.90;;;;;;4861802;29;20094;-83
2023/07/05 09:01:03;;;;;;;14.15;3.10;;;15.60;99.90;;;;;;4861716;29;20063;-83
2023/07/05 09:03:29;;;;;;;8.88;2.60;;;15.60;99.90;;;;;;4861180;29;20025;-83
2023/07/05 09:06:10;;;;;;;10.00;3.10;;;15.70;99.90;;;;;;4861410;29;20034;-83
2023/07/05 09:09:09;;;;;;;7.05;2.58;;;15.70;99.90;;;;;;4861892;29;20029;-83
2023/07/05 09:11:47;;;;;;;12.20;2.75;;;15.80;99.90;;;;;;4861715;29;20029;-83
2023/07/05 09:14:57;;;;;;;14.15;3.15;;;15.90;99.90;;;;;;4861690;29;20104;-82
2023/07/05 09:17:51;;;;;;;8.23;2.87;;;15.90;99.90;;;;;;4860054;29;20493;-83
2023/07/05 09:20:25;;;;;;;16.60;4.00;;;15.90;99.90;;;;;;4861743;29;20029;-83
2023/07/05 09:22:52;;;;;;;10.50;2.83;;;15.90;99.90;;;;;;4861068;29;20037;-83
2023/07/05 09:25:22;;;;;;;9.02;2.45;;;16.40;99.90;;;;;;4861119;29;20137;-83
2023/07/05 09:27:55;;;;;;;18.10;3.70;;;15.90;99.90;;;;;;4860813;29;20424;-83
2023/07/05 09:30:24;;;;;;;11.43;3.92;;;16.00;99.90;;;;;;4860484;29;20045;-83
2023/07/05 09:33:05;;;;;;;9.75;3.50;;;15.90;99.90;;;;;;4861127;29;20029;-82
2023/07/05 09:35:35;;;;;;;13.20;3.08;;;16.90;99.90;;;;;;4861245;29;20034;-83
2023/07/05 09:38:00;;;;;;;15.55;3.08;;;16.00;99.90;;;;;;4860192;29;20057;-83
2023/07/05 09:40:31;;;;;;;8.00;3.10;;;15.80;99.90;;;;;;4861268;29;20101;-83
2023/07/05 09:43:06;;;;;;;10.30;3.53;;;16.10;99.90;;;;;;4860915;29;20029;-83
2023/07/05 09:45:31;;;;;;;8.25;3.17;;;16.30;99.90;;;;;;4860591;29;20030;-83
2023/07/05 09:48:00;;;;;;;8.30;2.90;;;16.40;99.90;;;;;;4860893;29;20086;-83
2023/07/05 09:50:25;;;;;;;9.48;2.60;;;16.10;99.90;;;;;;4861052;29;20041;-83
2023/07/05 09:52:55;;;;;;;12.38;2.65;;;16.10;99.90;;;;;;4860576;29;20073;-83
2023/07/05 09:55:25;;;;;;;7.63;2.78;;;16.20;99.90;;;;;;4861221;29;20036;-84
2023/07/05 09:57:52;;;;;;;13.63;3.20;;;16.30;99.90;;;;;;4860766;29;20029;-83
2023/07/05 10:00:29;;;;;;;8.15;3.00;;;16.20;99.90;;;;;;4860106;29;20134;-83
2023/07/05 10:03:04;;;;;;;22.52;3.20;;;16.30;99.90;;;;;;4860780;29;20033;-83
2023/07/05 10:05:30;;;;;;;11.85;3.38;;;16.30;99.90;;;;;;4873106;29;20017;-83
2023/07/05 10:07:59;;;;;;;18.58;3.72;;;16.40;99.90;;;;;;4877269;29;20081;-83
2023/07/05 10:10:41;;;;;;;13.43;2.50;;;16.30;99.90;;;;;;4868331;29;20044;-83
2023/07/05 10:13:20;;;;;;;10.88;3.10;;;16.40;99.90;;;;;;4860188;29;20033;-83
2023/07/05 10:15:50;;;;;;;11.85;3.30;;;16.30;99.90;;;;;;4862668;29;20041;-83
2023/07/05 10:18:27;;;;;;;5.33;2.37;;;16.40;99.90;;;;;;4860726;29;20032;-83
2023/07/05 10:20:55;;;;;;;9.25;2.95;;;16.40;99.90;;;;;;4859953;29;20033;-83
2023/07/05 10:23:22;;;;;;;7.63;2.67;;;16.00;99.90;;;;;;4860704;29;20409;-84
2023/07/05 10:25:51;;;;;;;12.40;3.15;;;16.80;99.90;;;;;;4859946;29;20502;-83
2023/07/05 10:28:21;;;;;;;9.82;3.55;;;16.50;99.90;;;;;;4859537;29;20029;-84
2023/07/05 10:31:03;;;;;;;12.57;3.20;;;16.60;99.90;;;;;;4860450;29;20029;-83
2023/07/05 10:33:32;;;;;;;10.10;3.03;;;16.40;99.90;;;;;;4860018;29;20041;-83
2023/07/05 10:36:02;;;;;;;9.80;2.97;;;17.60;99.90;;;;;;4860243;29;20034;-83
2023/07/05 10:38:49;;;;;;;6.70;2.65;;;16.70;99.90;;;;;;4859932;29;20041;-82
2023/07/05 10:41:26;;;;;;;8.90;2.28;;;16.80;99.90;;;;;;4860044;29;20033;-83
2023/07/05 10:44:16;;;;;;;12.02;2.95;;;16.80;99.90;;;;;;4860518;29;20040;-83
2023/07/05 10:46:45;;;;;;;11.82;2.83;;;16.30;99.90;;;;;;4860233;29;20204;-83
2023/07/05 10:49:14;;;;;;;8.40;2.77;;;16.90;99.90;;;;;;4859737;29;20045;-83
2023/07/05 10:51:48;;;;;;;9.85;2.72;;;16.90;99.90;;;;;;4860396;29;20029;-83
2023/07/05 10:54:20;;;;;;;7.43;2.50;;;16.90;99.90;;;;;;4860510;29;20037;-83
2023/07/05 10:56:47;;;;;;;5.85;1.90;;;17.10;99.90;;;;;;4860178;29;20478;-84
2023/07/05 10:59:25;;;;;;;7.07;2.45;;;16.90;99.90;;;;;;4860353;29;20041;-83
2023/07/05 11:02:00;;;;;;;9.45;2.80;;;16.00;99.90;;;;;;4859925;29;20045;-83
2023/07/05 11:04:29;;;;;;;8.70;2.03;;;17.00;99.90;;;;;;4860695;29;20049;-83
2023/07/05 11:07:00;;;;;;;7.93;2.40;;;17.10;99.90;;;;;;4860064;29;20040;-83
2023/07/05 11:09:31;;;;;;;13.07;2.63;;;17.40;99.90;;;;;;4859845;29;20465;-83
2023/07/05 11:11:59;;;;;;;11.35;2.60;;;17.10;99.90;;;;;;4860229;29;20030;-83
2023/07/05 11:14:28;;;;;;;9.10;2.67;;;17.10;99.90;;;;;;4860122;29;20029;-83
2023/07/05 11:16:55;;;;;;;6.65;2.35;;;17.10;99.90;;;;;;4859384;29;20026;-82
2023/07/05 11:19:26;;;;;;;11.10;1.95;;;17.10;99.90;;;;;;4859868;29;20487;-83
2023/07/05 11:21:52;;;;;;;11.35;2.35;;;17.10;99.90;;;;;;4859834;29;20052;-83
2023/07/05 11:24:36;;;;;;;10.93;2.22;;;17.20;99.90;;;;;;4859328;29;20038;-83
2023/07/05 11:27:22;;;;;;;28.13;2.33;;;17.30;99.90;;;;;;4860016;29;20041;-83
2023/07/05 11:29:47;;;;;;;11.48;2.85;;;17.30;99.90;;;;;;4858798;29;20041;-83
2023/07/05 11:32:14;;;;;;;3.90;2.13;;;18.10;99.90;;;;;;4860003;29;20359;-83
2023/07/05 11:34:48;;;;;;;4.80;1.50;;;17.30;99.90;;;;;;4859811;29;20040;-83
2023/07/05 11:37:14;;;;;;;13.75;3.22;;;17.40;99.90;;;;;;4859364;29;20516;-83
2023/07/05 11:39:42;;;;;;;11.20;2.38;;;16.50;99.90;;;;;;4860049;29;20120;-82
2023/07/05 11:42:13;;;;;;;8.73;2.28;;;17.50;99.90;;;;;;4862428;29;20413;-83
2023/07/05 11:44:58;;;;;;;6.90;2.15;;;17.40;99.90;;;;;;4862747;29;20045;-82
2023/07/05 11:47:23;;;;;;;7.63;2.45;;;17.40;99.90;;;;;;4864317;29;20061;-82
2023/07/05 11:49:53;;;;;;;7.05;2.40;;;18.30;99.90;;;;;;4867520;29;20113;-83
2023/07/05 11:52:23;;;;;;;9.63;2.33;;;17.50;99.90;;;;;;4884128;29;20041;-83
2023/07/05 11:54:49;;;;;;;;;;;17.50;99.90;;;;;;4855308;29;20033;-83
2023/07/05 11:57:15;;;;;;;5.43;1.80;;;17.50;99.90;;;;;;4863158;29;19935;-82
2023/07/05 11:59:49;;;;;;;8.85;2.22;;;17.50;99.90;;;;;;4862241;29;20034;-83
2023/07/05 12:02:31;;;;;;;10.27;3.10;;;17.40;99.90;;;;;;4862870;29;20030;-83
2023/07/05 12:05:00;;;;;;;10.93;2.70;;;17.30;99.90;;;;;;4861790;29;20148;-83
2023/07/05 12:07:27;;;;;;;8.65;2.63;;;17.20;99.90;;;;;;4862937;29;20030;-82
2023/07/05 12:09:56;;;;;;;6.93;2.90;;;17.20;99.90;;;;;;4862273;29;20045;-83
2023/07/05 12:12:22;;;;;;;7.90;2.47;;;17.20;99.90;;;;;;4862181;29;20051;-83
2023/07/05 12:14:48;;;;;;;8.27;2.92;;;17.20;99.90;;;;;;4862622;29;20041;-83
2023/07/05 12:17:17;;;;;;;12.32;2.55;;;17.20;99.90;;;;;;4862673;29;20029;-83
2023/07/05 12:19:44;;;;;;;12.85;2.67;;;17.30;99.90;;;;;;4862021;29;20036;-83
2023/07/05 12:22:20;;;;;;;14.32;2.83;;;17.40;99.90;;;;;;4862579;29;20086;-83
2023/07/05 12:24:49;;;;;;;9.90;2.75;;;17.40;99.90;;;;;;4862149;29;20085;-83
2023/07/05 12:27:29;;;;;;;14.40;3.25;;;17.40;99.90;;;;;;4861910;29;20033;-83
2023/07/05 12:29:58;;;;;;;7.75;2.65;;;17.40;99.90;;;;;;4861928;29;20503;-83
2023/07/05 12:32:27;;;;;;;8.30;2.72;;;17.40;99.90;;;;;;4862571;29;20033;-83
2023/07/05 12:35:24;;;;;;;7.20;2.95;;;17.30;99.90;;;;;;4861775;29;20041;-83
2023/07/05 12:37:51;;;;;;;8.40;2.42;;;17.20;99.90;;;;;;4862595;29;20021;-83
2023/07/05 12:40:30;;;;;;;8.40;2.83;;;17.20;99.90;;;;;;4862906;29;20048;-82
2023/07/05 12:42:58;;;;;;;11.05;2.72;;;17.20;99.90;;;;;;4867717;29;20113;-83
2023/07/05 12:45:32;;;;;;;8.40;2.70;;;17.30;99.90;;;;;;4862358;29;20029;-83
2023/07/05 12:48:12;;;;;;;6.63;2.53;;;17.30;99.90;;;;;;4861760;29;20029;-83
2023/07/05 12:50:37;;;;;;;5.97;2.40;;;17.40;99.90;;;;;;4862204;29;20062;-83
2023/07/05 12:53:06;;;;;;;8.32;2.53;;;17.40;99.90;;;;;;4861562;29;20025;-82
2023/07/05 12:55:34;;;;;;;8.63;2.35;;;17.50;99.90;;;;;;4861338;29;20128;-83